Bow Heron — DYTN — position and weather

sailwx.info

Track history (hours):
 
Tides and Currents Weather Stations Pressure Air Temp Water Temp Dewpoint Dewpoint Depression Visibility Wind Speed Wind Dir Waves Ship Positions

Bow Heron

Last reported at 2014-Dec-19 23:09 UTC. Time now 2014-Dec-20 01:33 UTC.
Position N 29°45' W 095°06'.

Length 174 m; draft 6.8 m.

Type: Tanker. MMSI: 548779000.

Date/timePositionNaut miles runAvg speedWind from/ knotsBaromVisibWave heightAir tempDewpointWater temp
2014-Dec-19 23:09N 29°45' W 095°06'0 0.0
2014-Dec-19 21:21N 29°45' W 095°06'0 0.0
2014-Dec-19 19:24N 29°45' W 095°06'0 0.0
2014-Dec-19 18:18N 29°45' W 095°06'0 0.0
2014-Dec-19 17:33N 29°45' W 095°06'0 0.0
2014-Dec-19 16:33N 29°45' W 095°06'0 0.0
2014-Dec-19 15:33N 29°45' W 095°06'0 0.0
2014-Dec-19 14:33N 29°45' W 095°06'0 0.0
2014-Dec-19 04:09N 29°45' W 095°06'0 0.0
2014-Dec-19 01:33N 29°45' W 095°06'0 0.0
2014-Dec-19 00:33N 29°45' W 095°06'0 0.0
2014-Dec-18 22:06N 29°45' W 095°06'0 0.0
2014-Dec-18 21:12N 29°45' W 095°06'0 0.0
2014-Dec-18 20:24N 29°45' W 095°06'0 0.0
2014-Dec-18 18:18N 29°45' W 095°06'0 0.2
2014-Dec-18 16:33N 29°45' W 095°06'0 0.3
2014-Dec-18 15:32N 29°45' W 095°07'0 0.0
2014-Dec-18 14:32N 29°45' W 095°07'0 0.0
2014-Dec-18 13:32N 29°45' W 095°07'0 0.0
2014-Dec-18 12:32N 29°45' W 095°07'0 0.0
2014-Dec-18 11:32N 29°45' W 095°07'0 0.0
2014-Dec-18 10:26N 29°45' W 095°07'0 0.0
2014-Dec-18 09:17N 29°45' W 095°07'0 0.0
2014-Dec-18 08:32N 29°45' W 095°07'0 0.0
2014-Dec-18 07:26N 29°45' W 095°07'0 0.0
2014-Dec-18 06:32N 29°45' W 095°07'0 0.0
2014-Dec-18 05:32N 29°45' W 095°07'0 0.0
2014-Dec-18 04:32N 29°45' W 095°07'0 0.0
2014-Dec-18 03:32N 29°45' W 095°07'0 0.0
2014-Dec-18 02:23N 29°45' W 095°07'0 0.0
2014-Dec-18 01:32N 29°45' W 095°07'0 0.0
2014-Dec-18 00:32N 29°45' W 095°07'0 0.0
2014-Dec-17 23:32N 29°45' W 095°07'0 0.0
2014-Dec-17 22:32N 29°45' W 095°07'0 0.0
2014-Dec-17 21:32N 29°45' W 095°07'0 0.0
2014-Dec-17 20:32N 29°45' W 095°07'0 0.0
2014-Dec-17 19:32N 29°45' W 095°07'0 0.0
2014-Dec-17 18:32N 29°45' W 095°07'0 0.2
2014-Dec-17 17:31N 29°45' W 095°06'1 1.3
2014-Dec-17 16:32N 29°44' W 095°08'0 0.0
2014-Dec-17 15:32N 29°44' W 095°08'0 0.0
2014-Dec-17 14:29N 29°44' W 095°08'0 0.0
2014-Dec-17 13:32N 29°44' W 095°08'0 0.0
2014-Dec-17 12:32N 29°44' W 095°08'0 0.0
2014-Dec-17 08:20N 29°44' W 095°08'0 0.0
2014-Dec-17 07:32N 29°44' W 095°08'0 0.0
2014-Dec-17 06:29N 29°44' W 095°08'0 0.0
2014-Dec-17 04:23N 29°44' W 095°08'0 0.0
2014-Dec-17 03:20N 29°44' W 095°08'0 0.0
2014-Dec-17 02:26N 29°44' W 095°08'0 0.0
2014-Dec-17 01:14N 29°44' W 095°08'0 0.0
2014-Dec-17 00:32N 29°44' W 095°08'0 0.0
2014-Dec-16 23:32N 29°44' W 095°08'0 0.0
2014-Dec-16 22:32N 29°44' W 095°08'0 0.0
2014-Dec-16 21:32N 29°44' W 095°08'0 0.0
2014-Dec-16 20:32N 29°44' W 095°08'0 0.0
2014-Dec-16 19:32N 29°44' W 095°08'0 0.0
2014-Dec-16 18:32N 29°44' W 095°08'0 0.0
2014-Dec-16 17:32N 29°44' W 095°08'0 0.0
2014-Dec-16 16:32N 29°44' W 095°08'0 0.0
2014-Dec-16 15:32N 29°44' W 095°08'0 0.0
2014-Dec-16 14:32N 29°44' W 095°08'0 0.0
2014-Dec-16 13:33N 29°44' W 095°08'1 0.9
2014-Dec-16 12:33N 29°44' W 095°07'5 5.2
2014-Dec-16 11:34N 29°42' W 095°01'1010.3
2014-Dec-16 10:33N 29°34' W 094°55'16 1.3
2014-Dec-15 22:32N 29°21' W 094°44'0 0.0
2014-Dec-15 21:24N 29°21' W 094°44'0 0.0
2014-Dec-15 20:24N 29°21' W 094°44'0 0.0
2014-Dec-14 14:24N 29°21' W 094°44'8 1.1
2014-Dec-14 06:33N 29°27' W 094°51'1111.0
2014-Dec-14 05:33N 29°37' W 094°57'3 3.4
2014-Dec-14 04:31N 29°37' W 095°01'0 0.0
2014-Dec-14 03:31N 29°37' W 095°01'0 0.0
2014-Dec-14 02:31N 29°37' W 095°01'0 0.0
2014-Dec-14 01:31N 29°37' W 095°01'0 0.0
2014-Dec-14 00:31N 29°37' W 095°01'0 0.0
2014-Dec-13 23:31N 29°37' W 095°01'0 0.0
2014-Dec-13 22:31N 29°37' W 095°01'0 0.0
2014-Dec-13 21:31N 29°37' W 095°01'0 0.0
2014-Dec-13 20:31N 29°37' W 095°01'0 0.0
2014-Dec-13 19:31N 29°37' W 095°01'0 0.0
2014-Dec-13 18:31N 29°37' W 095°01'0 0.0
2014-Dec-13 17:31N 29°37' W 095°01'0 0.0
2014-Dec-13 16:31N 29°37' W 095°01'0 0.0
2014-Dec-13 15:31N 29°37' W 095°01'0 0.0
2014-Dec-13 14:31N 29°37' W 095°01'0 0.0
2014-Dec-13 13:31N 29°37' W 095°01'0 0.0
2014-Dec-13 12:31N 29°37' W 095°01'0 0.0
2014-Dec-13 11:28N 29°37' W 095°01'0 0.0
2014-Dec-13 10:31N 29°37' W 095°01'0 0.0
2014-Dec-13 09:28N 29°37' W 095°01'0 0.0
2014-Dec-13 08:31N 29°37' W 095°01'0 0.0
2014-Dec-13 07:31N 29°37' W 095°01'0 0.0
2014-Dec-13 06:31N 29°37' W 095°01'0 0.0
2014-Dec-13 05:25N 29°37' W 095°01'0 0.0
2014-Dec-13 04:31N 29°37' W 095°01'0 0.0
2014-Dec-13 03:31N 29°37' W 095°01'0 0.0
2014-Dec-13 02:31N 29°37' W 095°01'0 0.0
2014-Dec-13 01:31N 29°37' W 095°01'0 0.0
2014-Dec-13 00:31N 29°37' W 095°01'1 1.3
2014-Dec-12 23:33N 29°37' W 094°60'8 8.3
2014-Dec-12 22:33N 29°31' W 094°53'1110.8
2014-Dec-12 21:33N 29°21' W 094°47'3 0.1
2014-Dec-11 10:13N 29°24' W 094°49'812.6
2014-Dec-11 09:33N 29°31' W 094°53'1211.5
2014-Dec-11 08:33N 29°41' W 094°59'7 6.5
2014-Dec-11 07:29N 29°45' W 095°06'0 0.2
2014-Dec-11 06:32N 29°45' W 095°06'0 0.0
2014-Dec-11 05:26N 29°45' W 095°06'0 0.0
2014-Dec-11 04:32N 29°45' W 095°06'0 0.0
2014-Dec-11 03:32N 29°45' W 095°06'0 0.0
2014-Dec-11 02:32N 29°45' W 095°06'0 0.0
2014-Dec-11 01:32N 29°45' W 095°06'0 0.0
2014-Dec-11 00:32N 29°45' W 095°06'0 0.0
2014-Dec-10 23:32N 29°45' W 095°06'0 0.0
2014-Dec-10 22:32N 29°45' W 095°06'0 0.0
2014-Dec-10 21:32N 29°45' W 095°06'0 0.0
2014-Dec-10 20:32N 29°45' W 095°06'0 0.0
2014-Dec-10 19:32N 29°45' W 095°06'0 0.0
2014-Dec-10 18:32N 29°45' W 095°06'0 0.0
2014-Dec-10 17:32N 29°45' W 095°06'0 0.0
2014-Dec-10 16:32N 29°45' W 095°06'0 0.0
2014-Dec-10 15:32N 29°45' W 095°06'0 0.0
2014-Dec-10 14:32N 29°45' W 095°06'0 0.0
2014-Dec-10 13:32N 29°45' W 095°06'0 0.0
2014-Dec-10 12:32N 29°45' W 095°06'0 0.0
2014-Dec-10 11:32N 29°45' W 095°06'0 0.0
2014-Dec-10 10:32N 29°45' W 095°06'0 0.0
2014-Dec-10 09:32N 29°45' W 095°06'0 0.0
2014-Dec-10 08:32N 29°45' W 095°06'0 0.0
2014-Dec-10 07:32N 29°45' W 095°06'0 0.0
2014-Dec-10 06:32N 29°45' W 095°06'0 0.0
2014-Dec-10 05:32N 29°45' W 095°06'0 0.0
2014-Dec-10 04:32N 29°45' W 095°06'0 0.0
2014-Dec-10 03:32N 29°45' W 095°06'0 0.0
2014-Dec-10 02:32N 29°45' W 095°06'0 0.0
2014-Dec-10 01:32N 29°45' W 095°06'0 0.0
2014-Dec-10 00:32N 29°45' W 095°06'0 0.0
2014-Dec-09 23:32N 29°45' W 095°06'  
Track history (hours):
 
Tides and Currents Weather Stations Pressure Air Temp Water Temp Dewpoint Dewpoint Depression Visibility Wind Speed Wind Dir Waves Ship Positions

Bow Heron

Last reported at 2014-Dec-19 23:09 UTC. Time now 2014-Dec-20 01:33 UTC.
Position N 29°45' W 095°06'.

Length 174 m; draft 6.8 m.

Type: Tanker. MMSI: 548779000.

Date/timePositionNaut miles runAvg speedWind from/ knotsBaromVisibWave heightAir tempDewpointWater temp
2014-Dec-19 23:09N 29°45' W 095°06'0 0.0
2014-Dec-19 21:21N 29°45' W 095°06'0 0.0
2014-Dec-19 19:24N 29°45' W 095°06'0 0.0
2014-Dec-19 18:18N 29°45' W 095°06'0 0.0
2014-Dec-19 17:33N 29°45' W 095°06'0 0.0
2014-Dec-19 16:33N 29°45' W 095°06'0 0.0
2014-Dec-19 15:33N 29°45' W 095°06'0 0.0
2014-Dec-19 14:33N 29°45' W 095°06'0 0.0
2014-Dec-19 04:09N 29°45' W 095°06'0 0.0
2014-Dec-19 01:33N 29°45' W 095°06'0 0.0
2014-Dec-19 00:33N 29°45' W 095°06'0 0.0
2014-Dec-18 22:06N 29°45' W 095°06'0 0.0
2014-Dec-18 21:12N 29°45' W 095°06'0 0.0
2014-Dec-18 20:24N 29°45' W 095°06'0 0.0
2014-Dec-18 18:18N 29°45' W 095°06'0 0.2
2014-Dec-18 16:33N 29°45' W 095°06'0 0.3
2014-Dec-18 15:32N 29°45' W 095°07'0 0.0
2014-Dec-18 14:32N 29°45' W 095°07'0 0.0
2014-Dec-18 13:32N 29°45' W 095°07'0 0.0
2014-Dec-18 12:32N 29°45' W 095°07'0 0.0
2014-Dec-18 11:32N 29°45' W 095°07'0 0.0
2014-Dec-18 10:26N 29°45' W 095°07'0 0.0
2014-Dec-18 09:17N 29°45' W 095°07'0 0.0
2014-Dec-18 08:32N 29°45' W 095°07'0 0.0
2014-Dec-18 07:26N 29°45' W 095°07'0 0.0
2014-Dec-18 06:32N 29°45' W 095°07'0 0.0
2014-Dec-18 05:32N 29°45' W 095°07'0 0.0
2014-Dec-18 04:32N 29°45' W 095°07'0 0.0
2014-Dec-18 03:32N 29°45' W 095°07'0 0.0
2014-Dec-18 02:23N 29°45' W 095°07'0 0.0
2014-Dec-18 01:32N 29°45' W 095°07'0 0.0
2014-Dec-18 00:32N 29°45' W 095°07'0 0.0
2014-Dec-17 23:32N 29°45' W 095°07'0 0.0
2014-Dec-17 22:32N 29°45' W 095°07'0 0.0
2014-Dec-17 21:32N 29°45' W 095°07'0 0.0
2014-Dec-17 20:32N 29°45' W 095°07'0 0.0
2014-Dec-17 19:32N 29°45' W 095°07'0 0.0
2014-Dec-17 18:32N 29°45' W 095°07'0 0.2
2014-Dec-17 17:31N 29°45' W 095°06'1 1.3
2014-Dec-17 16:32N 29°44' W 095°08'0 0.0
2014-Dec-17 15:32N 29°44' W 095°08'0 0.0
2014-Dec-17 14:29N 29°44' W 095°08'0 0.0
2014-Dec-17 13:32N 29°44' W 095°08'0 0.0
2014-Dec-17 12:32N 29°44' W 095°08'0 0.0
2014-Dec-17 08:20N 29°44' W 095°08'0 0.0
2014-Dec-17 07:32N 29°44' W 095°08'0 0.0
2014-Dec-17 06:29N 29°44' W 095°08'0 0.0
2014-Dec-17 04:23N 29°44' W 095°08'0 0.0
2014-Dec-17 03:20N 29°44' W 095°08'0 0.0
2014-Dec-17 02:26N 29°44' W 095°08'0 0.0
2014-Dec-17 01:14N 29°44' W 095°08'0 0.0
2014-Dec-17 00:32N 29°44' W 095°08'0 0.0
2014-Dec-16 23:32N 29°44' W 095°08'0 0.0
2014-Dec-16 22:32N 29°44' W 095°08'0 0.0
2014-Dec-16 21:32N 29°44' W 095°08'0 0.0
2014-Dec-16 20:32N 29°44' W 095°08'0 0.0
2014-Dec-16 19:32N 29°44' W 095°08'0 0.0
2014-Dec-16 18:32N 29°44' W 095°08'0 0.0
2014-Dec-16 17:32N 29°44' W 095°08'0 0.0
2014-Dec-16 16:32N 29°44' W 095°08'0 0.0
2014-Dec-16 15:32N 29°44' W 095°08'0 0.0
2014-Dec-16 14:32N 29°44' W 095°08'0 0.0
2014-Dec-16 13:33N 29°44' W 095°08'1 0.9
2014-Dec-16 12:33N 29°44' W 095°07'5 5.2
2014-Dec-16 11:34N 29°42' W 095°01'1010.3
2014-Dec-16 10:33N 29°34' W 094°55'16 1.3
2014-Dec-15 22:32N 29°21' W 094°44'0 0.0
2014-Dec-15 21:24N 29°21' W 094°44'0 0.0
2014-Dec-15 20:24N 29°21' W 094°44'0 0.0
2014-Dec-14 14:24N 29°21' W 094°44'8 1.1
2014-Dec-14 06:33N 29°27' W 094°51'1111.0
2014-Dec-14 05:33N 29°37' W 094°57'3 3.4
2014-Dec-14 04:31N 29°37' W 095°01'0 0.0
2014-Dec-14 03:31N 29°37' W 095°01'0 0.0
2014-Dec-14 02:31N 29°37' W 095°01'0 0.0
2014-Dec-14 01:31N 29°37' W 095°01'0 0.0
2014-Dec-14 00:31N 29°37' W 095°01'0 0.0
2014-Dec-13 23:31N 29°37' W 095°01'0 0.0
2014-Dec-13 22:31N 29°37' W 095°01'0 0.0
2014-Dec-13 21:31N 29°37' W 095°01'0 0.0
2014-Dec-13 20:31N 29°37' W 095°01'0 0.0
2014-Dec-13 19:31N 29°37' W 095°01'0 0.0
2014-Dec-13 18:31N 29°37' W 095°01'0 0.0
2014-Dec-13 17:31N 29°37' W 095°01'0 0.0
2014-Dec-13 16:31N 29°37' W 095°01'0 0.0
2014-Dec-13 15:31N 29°37' W 095°01'0 0.0
2014-Dec-13 14:31N 29°37' W 095°01'0 0.0
2014-Dec-13 13:31N 29°37' W 095°01'0 0.0
2014-Dec-13 12:31N 29°37' W 095°01'0 0.0
2014-Dec-13 11:28N 29°37' W 095°01'0 0.0
2014-Dec-13 10:31N 29°37' W 095°01'0 0.0
2014-Dec-13 09:28N 29°37' W 095°01'0 0.0
2014-Dec-13 08:31N 29°37' W 095°01'0 0.0
2014-Dec-13 07:31N 29°37' W 095°01'0 0.0
2014-Dec-13 06:31N 29°37' W 095°01'0 0.0
2014-Dec-13 05:25N 29°37' W 095°01'0 0.0
2014-Dec-13 04:31N 29°37' W 095°01'0 0.0
2014-Dec-13 03:31N 29°37' W 095°01'0 0.0
2014-Dec-13 02:31N 29°37' W 095°01'0 0.0
2014-Dec-13 01:31N 29°37' W 095°01'0 0.0
2014-Dec-13 00:31N 29°37' W 095°01'1 1.3
2014-Dec-12 23:33N 29°37' W 094°60'8 8.3
2014-Dec-12 22:33N 29°31' W 094°53'1110.8
2014-Dec-12 21:33N 29°21' W 094°47'3 0.1
2014-Dec-11 10:13N 29°24' W 094°49'812.6
2014-Dec-11 09:33N 29°31' W 094°53'1211.5
2014-Dec-11 08:33N 29°41' W 094°59'7 6.5
2014-Dec-11 07:29N 29°45' W 095°06'0 0.2
2014-Dec-11 06:32N 29°45' W 095°06'0 0.0
2014-Dec-11 05:26N 29°45' W 095°06'0 0.0
2014-Dec-11 04:32N 29°45' W 095°06'0 0.0
2014-Dec-11 03:32N 29°45' W 095°06'0 0.0
2014-Dec-11 02:32N 29°45' W 095°06'0 0.0
2014-Dec-11 01:32N 29°45' W 095°06'0 0.0
2014-Dec-11 00:32N 29°45' W 095°06'0 0.0
2014-Dec-10 23:32N 29°45' W 095°06'0 0.0
2014-Dec-10 22:32N 29°45' W 095°06'0 0.0
2014-Dec-10 21:32N 29°45' W 095°06'0 0.0
2014-Dec-10 20:32N 29°45' W 095°06'0 0.0
2014-Dec-10 19:32N 29°45' W 095°06'0 0.0
2014-Dec-10 18:32N 29°45' W 095°06'0 0.0
2014-Dec-10 17:32N 29°45' W 095°06'0 0.0
2014-Dec-10 16:32N 29°45' W 095°06'0 0.0
2014-Dec-10 15:32N 29°45' W 095°06'0 0.0
2014-Dec-10 14:32N 29°45' W 095°06'0 0.0
2014-Dec-10 13:32N 29°45' W 095°06'0 0.0
2014-Dec-10 12:32N 29°45' W 095°06'0 0.0
2014-Dec-10 11:32N 29°45' W 095°06'0 0.0
2014-Dec-10 10:32N 29°45' W 095°06'0 0.0
2014-Dec-10 09:32N 29°45' W 095°06'0 0.0
2014-Dec-10 08:32N 29°45' W 095°06'0 0.0
2014-Dec-10 07:32N 29°45' W 095°06'0 0.0
2014-Dec-10 06:32N 29°45' W 095°06'0 0.0
2014-Dec-10 05:32N 29°45' W 095°06'0 0.0
2014-Dec-10 04:32N 29°45' W 095°06'0 0.0
2014-Dec-10 03:32N 29°45' W 095°06'0 0.0
2014-Dec-10 02:32N 29°45' W 095°06'0 0.0
2014-Dec-10 01:32N 29°45' W 095°06'0 0.0
2014-Dec-10 00:32N 29°45' W 095°06'0 0.0
2014-Dec-09 23:32N 29°45' W 095°06'  

Dump ship's entire track history